Estación Meteorológica Peña el Pijo (Robertgarden) [ 02/03/23 04:51:32 CET ]

Fecha Hora Presion(HPa) Temp (°C) Humedad % Rocio (°C) Viento ( m/s) Direccion Lluvia 1Hora(mm) Lluvia 24H(mm) LLuvia Total(mm)
2010-Mar-04 01:01:11 1002.400 6.5 85 4.2     1.03 2.07 94.27
2010-Mar-04 02:03:11 1002.100 5.4 86 3.2     2.59 4.66 96.86
2010-Mar-04 03:01:19 1002.100 5.1 86 2.9     0.51 5.18 97.38
2010-Mar-04 04:01:12 1002.100 4.9 88 3.1       4.66 97.38
2010-Mar-04 05:01:13 1002.000 5.3 90 3.8       4.66 97.38
2010-Mar-04 06:01:18 1002.800 7.0 86 4.8       4.66 97.38
2010-Mar-04 07:01:16 1003.500 7.3 85 5.0       4.66 97.38
2010-Mar-04 08:01:12 1004.200 6.4 88 4.6       4.14 97.38
2010-Mar-04 09:01:11 1004.900 7.4 90 5.9       4.14 97.38
2010-Mar-04 10:01:12 1006.000 10.2 80 6.9       4.14 97.38
2010-Mar-04 11:01:17 1006.400 10.9 75 6.7       4.14 97.38
2010-Mar-04 12:01:12 1006.800 11.5 70 6.2       4.14 97.38
2010-Mar-04 13:01:17 1007.000 13.5 62 6.3       4.14 97.38
2010-Mar-04 14:01:14 1006.900 13.8 58 5.7       4.14 97.38
2010-Mar-04 15:01:16 1007.100 13.1 59 5.2       4.14 97.38
2010-Mar-04 16:01:18 1006.900 13.1 55 4.2       4.14 97.38
2010-Mar-04 17:01:12 1006.900 11.2 60 3.7       4.14 97.38
2010-Mar-04 18:01:14 1007.200 10.9 63 4.1       4.14 97.38
2010-Mar-04 19:01:11 1007.700 9.5 68 3.9       4.14 97.38
2010-Mar-04 20:01:16 1007.700 7.4 75 3.2       4.14 97.38
2010-Mar-04 21:01:16 1008.200 6.6 80 3.4       4.14 97.38
2010-Mar-04 22:01:14 1007.800 7.9 77 4.1       4.14 97.38
2010-Mar-04 23:01:14 1007.700 7.3 77 3.5       4.14 97.38

Temperatura Máxima:13°    Temperatura Mínima:
Presión Máxima:1008.200 Hpa    Presión Mínima:1002.000 Hpa


Volver